메인 페이지
METAR-TAF:

METAR-TAF

공항 :

나파, 캘리포니아, 미국

위도: 38-12-27N, 경도: 122-16-46W, 고도: 10m

현재 날씨관측

예보는 25분 전, 19:54시(UTC)에 발표되었습니다.
남남서13kt, 순간 최대 풍속 19kt
온도 18°C
습도 68%
기압 1015 hPa
시정: 12.9km
맑음

METAR: KAPC 131954Z 20013G19KT 8SM CLR 18/12 A2996 RMK AO2 SLP137 T01830117

시각: 13:19 (20:19 UTC)

예보

예보는 2 시간 46분 전, 17:33시(UTC)에 발표되었습니다.
예보 대상 시간: 13일 18시부터 14일 18시까지 (UTC)
서남서12kt
시정: 10km
고도 1300ft 상공 구름 조금
13일 2000시부터 (UTC)
남남서20kt, 순간 최대 풍속 25kt
시정: 10km
맑음
14일 0500시부터 (UTC)
남남서10kt, 순간 최대 풍속 15kt
시정: 10km
맑음
14일 0900시부터 (UTC)
남서8kt
시정: 10km
고도 1500ft 상공 구름 조금
14일 1200시부터 (UTC)
남서6kt
시정: 10km
고도 1500ft 상공 구름 조금

TAF: KAPC 131733Z 1318/1418 24012KT P6SM FEW013 FM132000 20020G25KT P6SM SKC FM140500 20010G15KT P6SM SKC FM140900 23008KT P6SM FEW015 FM141200 23006KT P6SM FEW015

4,000개 이상의 공항 관측 자료 및 예보 (METAR 및 TAF 보고).

지도상에서 검색 가능한 기상관측소가 노란 점과 빨간 점으로 표시되어 있습니다.

기상관측소 명을 보려면 표시 위로 마우스를 이동하세요.

날씨 관측과 예보를 보려면 클릭하세요.

지도 변경 : 확대하려면 엑스 표시가 있는 녹색 버튼, 축소하려면 빼기 표시가 있는 녹색 버튼, 다음 페이지의 지도를 보려면 녹색 화살표를 클릭하세요.


METAR-TAF: